Latest Coastal Weather Observations for Dennes Point

IDT60701

Issued at 2:52 pm EDT Tuesday 30 November 2021 (issued every 10 minutes, with the page automatically refreshed every 10 minutes)

About coastal observations | Map of coastal stations | Coastal observations for TAS | Marine services | Other Formats
Station Details ID: 094255 Name: DENNES POINT Lat: -43.06 Lon: 147.36 Height: 5.67 m
Data from the previous 72 hours. | See also: Recent months at Dennes Point
Date/Time
EDT
Wind Sea
Height
m
Swell Vis
km
Cloud Weather Temp
°C
Press
MSL
hPa
Rain since
9am
mm
Dir  Spd
kts
Gust
kts
Height
m
Period
s
Dir
30/02:30pm ENE 22 25 - - - - - - - 19.5 1013.2 0.0
30/02:00pm ENE 20 23 - - - - - - - 19.5 1013.7 0.0
30/01:30pm ENE 19 23 - - - - - - - 19.4 1013.9 0.0
30/01:00pm ENE 19 22 - - - - - - - 19.2 1014.3 0.0
30/12:30pm ENE 20 23 - - - - - - - 18.9 1014.7 0.0
30/12:00pm ENE 19 21 - - - - - - - 18.7 1015.1 0.0
30/11:30am ENE 14 19 - - - - - - - 18.8 1015.7 0.0
30/11:00am NE 12 14 - - - - - - - 19.3 1015.9 0.0
30/10:30am NE 11 14 - - - - - - - 18.4 1016.3 0.0
30/10:00am NE 10 12 - - - - - - - 17.9 1016.6 0.0
30/09:30am NNE 10 12 - - - - - - - 16.8 1016.9 0.0
30/09:00am NNE 10 12 - - - - - - - 15.9 1017.2 0.0
30/08:30am NNE 7 10 - - - - - - - 14.9 1017.4 0.0
30/08:00am NNE 8 10 - - - - - - - 14.3 1017.2 0.0
30/07:30am NNE 7 9 - - - - - - - 13.5 1017.2 0.0
30/07:00am NNE 6 8 - - - - - - - 13.0 1017.2 0.0
30/06:30am N 5 7 - - - - - - - 12.8 1017.2 0.0
30/06:00am NNE 3 4 - - - - - - - 12.3 1016.8 0.0
30/05:30am NE 1 3 - - - - - - - 11.2 1016.7 0.0
30/05:00am CALM 0 2 - - - - - - - 11.2 1016.6 0.0
30/04:30am SW 1 3 - - - - - - - 10.6 1016.6 0.0
30/04:00am S 4 5 - - - - - - - 10.9 1016.7 0.0
30/03:30am SW 4 5 - - - - - - - 10.8 1016.7 0.0
30/03:00am S 4 5 - - - - - - - 11.2 1016.8 0.0
30/02:30am SSW 4 4 - - - - - - - 11.3 1017.1 0.0
30/02:00am SSW 4 5 - - - - - - - 11.3 1017.5 0.0
30/01:30am SSW 4 5 - - - - - - - 11.4 1017.5 0.0
30/01:00am S 4 5 - - - - - - - 11.8 1017.9 0.0
30/12:30am SW 3 4 - - - - - - - 11.1 1018.3 0.0
30/12:00am CALM 0 0 - - - - - - - 12.5 1018.6 0.0
 
Date/Time
EDT
Wind Sea
Height
m
Swell Vis
km
Cloud Weather Temp
°C
Press
MSL
hPa
Rain since
9am
mm
Dir  Spd
kts
Gust
kts
Height
m
Period
s
Dir
29/11:30pm CALM 0 1 - - - - - - - 12.3 1018.7 0.0
29/11:00pm SSW 3 3 - - - - - - - 12.1 1018.9 0.0
29/10:30pm SW 2 3 - - - - - - - 12.2 1019.0 0.0
29/10:00pm SSW 3 4 - - - - - - - 12.0 1019.2 0.0
29/09:30pm SSW 4 4 - - - - - - - 12.4 1019.1 0.0
29/09:00pm SSW 3 4 - - - - - - - 12.8 1019.1 0.0
29/08:30pm S 1 4 - - - - - - - 13.7 1018.9 0.0
29/08:00pm SE 1 2 - - - - - - - 15.3 1018.8 0.0
29/07:30pm SE 2 3 - - - - - - - 16.0 1018.8 0.0
29/07:00pm S 4 9 - - - - - - - 16.5 1018.7 0.0
29/06:30pm S 4 9 - - - - - - - 16.4 1018.7 0.0
29/06:00pm SE 6 9 - - - - - - - 16.5 1018.7 0.0
29/05:30pm ESE 10 14 - - - - - - - 16.3 1018.7 0.0
29/05:00pm SE 7 10 - - - - - - - 16.8 1018.9 0.0
29/04:30pm SE 8 13 - - - - - - - 16.7 1019.1 0.0
29/04:00pm ESE 8 12 - - - - - - - 17.1 1019.3 0.0
29/03:30pm ESE 11 15 - - - - - - - 17.1 1019.2 0.0
29/03:00pm SE 9 12 - - - - - - - 17.9 1019.3 0.0
29/02:30pm ESE 12 16 - - - - - - - 16.8 1019.5 0.0
29/02:00pm ESE 9 13 - - - - - - - 16.9 1019.6 0.0
29/01:30pm ESE 12 16 - - - - - - - 16.8 1019.8 0.0
29/01:00pm ESE 13 16 - - - - - - - 17.0 1020.0 0.0
29/12:30pm ESE 11 15 - - - - - - - 16.9 1020.2 0.0
29/12:00pm ESE 12 15 - - - - - - - 16.8 1020.4 0.0
29/11:30am ESE 11 13 - - - - - - - 16.4 1020.5 0.0
29/11:00am ESE 9 12 - - - - - - - 16.6 1020.6 0.0
29/10:30am ESE 7 9 - - - - - - - 16.7 1020.7 0.0
29/10:00am E 5 7 - - - - - - - 16.3 1020.7 0.0
29/09:30am ENE 4 5 - - - - - - - 16.2 1020.8 0.0
29/09:00am ENE 3 4 - - - - - - - 15.7 1020.8 0.0
29/08:30am WSW 2 3 - - - - - - - 14.2 1020.8 0.0
29/08:00am WSW 4 5 - - - - - - - 13.2 1020.6 0.0
29/07:30am SW 5 6 - - - - - - - 12.5 1020.5 0.0
29/07:00am SSW 5 6 - - - - - - - 11.7 1020.3 0.0
29/06:30am SSW 4 5 - - - - - - - 11.0 1020.3 0.0
29/06:00am SSW 3 4 - - - - - - - 10.4 1020.2 0.0
29/05:30am SW 5 6 - - - - - - - 10.2 1020.1 0.0
29/05:00am W 4 6 - - - - - - - 11.0 1019.9 0.0
29/04:30am NNE 6 8 - - - - - - - 12.1 1020.0 0.0
29/04:00am SSW 1 5 - - - - - - - 10.6 1020.2 0.0
29/03:30am SW 3 5 - - - - - - - 9.9 1020.5 0.0
29/03:00am SSW 2 4 - - - - - - - 10.8 1020.7 0.0
29/02:30am CALM 0 0 - - - - - - - 9.8 1021.1 0.0
29/02:00am CALM 0 0 - - - - - - - 11.6 1021.7 0.0
29/01:30am CALM 0 0 - - - - - - - 11.5 1022.1 0.0
29/01:00am SSW 2 3 - - - - - - - 11.2 1022.6 0.0
29/12:30am SSW 3 3 - - - - - - - 10.9 1023.0 0.0
29/12:00am SSW 3 4 - - - - - - - 10.8 1023.3 0.0
 
Date/Time
EDT
Wind Sea
Height
m
Swell Vis
km
Cloud Weather Temp
°C
Press
MSL
hPa
Rain since
9am
mm
Dir  Spd
kts
Gust
kts
Height
m
Period
s
Dir
28/11:30pm S 3 4 - - - - - - - 11.5 1023.6 0.0
28/11:00pm SSW 3 4 - - - - - - - 11.3 1023.8 0.0
28/10:30pm S 3 3 - - - - - - - 11.8 1024.0 0.0
28/10:00pm S 2 3 - - - - - - - 12.2 1024.1 0.0
28/09:30pm SSE 3 5 - - - - - - - 13.0 1024.1 0.0
28/09:00pm SSE 2 5 - - - - - - - 13.5 1023.9 0.0
28/08:30pm SSE 3 7 - - - - - - - 13.5 1023.9 0.0
28/08:00pm SSE 3 6 - - - - - - - 13.9 1023.9 0.0
28/07:30pm SE 5 8 - - - - - - - 14.4 1023.7 0.0
28/07:00pm SE 6 10 - - - - - - - 14.8 1023.4 0.0
28/06:30pm ESE 9 14 - - - - - - - 15.0 1023.1 0.0
28/06:00pm SE 7 12 - - - - - - - 15.5 1023.2 0.0
28/05:30pm SE 8 12 - - - - - - - 16.0 1023.1 0.0
28/05:00pm ESE 9 15 - - - - - - - 16.0 1023.2 0.0
28/04:30pm ESE 10 14 - - - - - - - 16.0 1023.2 0.0
28/04:00pm ESE 12 15 - - - - - - - 16.1 1023.2 0.0
28/03:30pm SE 10 14 - - - - - - - 16.5 1023.1 0.0
28/03:00pm ESE 12 17 - - - - - - - 16.2 1023.3 0.0
28/02:30pm SE 11 18 - - - - - - - 16.8 1023.4 0.0
28/02:00pm ESE 13 16 - - - - - - - 16.6 1023.6 0.0
28/01:30pm ESE 12 16 - - - - - - - 18.3 1023.7 0.0
28/01:00pm ESE 8 9 - - - - - - - 18.5 1023.8 0.0
28/12:30pm ESE 8 10 - - - - - - - 18.3 1024.2 0.0
28/12:00pm ESE 8 9 - - - - - - - 18.3 1024.5 0.0
28/11:30am NNE 2 3 - - - - - - - 18.8 1024.7 0.0
28/11:00am NNE 4 5 - - - - - - - 17.5 1025.1 0.0
28/10:30am NNE 5 6 - - - - - - - 17.1 1025.3 0.0
28/10:00am NNE 6 7 - - - - - - - 16.4 1025.5 0.0
28/09:30am NNE 7 9 - - - - - - - 15.2 1025.6 0.0
28/09:00am N 7 9 - - - - - - - 14.3 1025.9 0.0
28/08:30am NNE 4 7 - - - - - - - 13.9 1026.0 0.0
28/08:00am NNE 1 3 - - - - - - - 12.8 1026.1 0.0
28/07:30am SSW 3 5 - - - - - - - 11.6 1026.2 0.0
28/07:00am CALM 0 0 - - - - - - - 11.2 1026.0 0.0
28/06:30am S 4 5 - - - - - - - 9.3 1025.8 0.0
28/06:00am SSW 5 6 - - - - - - - 8.6 1025.7 0.0
28/05:30am S 6 8 - - - - - - - 8.3 1025.5 0.0
28/05:00am S 5 6 - - - - - - - 8.3 1025.4 0.0
28/04:30am SSW 6 9 - - - - - - - 8.4 1025.6 0.0
28/04:00am SSW 3 5 - - - - - - - 8.3 1025.5 0.0
28/03:30am S 5 6 - - - - - - - 8.9 1025.4 0.0
28/03:00am SSW 4 4 - - - - - - - 8.8 1025.8 0.0
28/02:30am SSW 4 5 - - - - - - - 8.8 1026.2 0.0
28/02:00am SSW 6 7 - - - - - - - 9.2 1026.7 0.0
28/01:30am SSW 5 6 - - - - - - - 9.6 1026.8 0.0
28/01:00am S 4 6 - - - - - - - 10.4 1027.0 0.0
28/12:30am S 4 5 - - - - - - - 10.9 1027.2 0.0
28/12:00am N 4 6 - - - - - - - 12.8 1027.4 0.0
 
Date/Time
EDT
Wind Sea
Height
m
Swell Vis
km
Cloud Weather Temp
°C
Press
MSL
hPa
Rain since
9am
mm
Dir  Spd
kts
Gust
kts
Height
m
Period
s
Dir
27/11:30pm NNE 6 7 - - - - - - - 13.1 1027.6 0.0
27/11:00pm E 3 5 - - - - - - - 12.2 1027.9 0.0
27/10:30pm ENE 7 9 - - - - - - - 13.0 1027.8 0.0
27/10:00pm ENE 7 9 - - - - - - - 13.2 1027.7 0.0
27/09:30pm ENE 7 9 - - - - - - - 13.4 1027.6 0.0
27/09:00pm NE 7 9 - - - - - - - 13.7 1027.4 0.0
27/08:30pm NE 8 10 - - - - - - - 14.0 1027.2 0.0
27/08:00pm NE 7 9 - - - - - - - 14.6 1027.0 0.0
27/07:30pm ENE 9 11 - - - - - - - 15.1 1026.9 0.0
27/07:00pm ENE 11 13 - - - - - - - 15.5 1026.6 0.0
27/06:30pm E 11 13 - - - - - - - 16.1 1026.4 0.0
27/06:00pm E 12 13 - - - - - - - 16.6 1026.1 0.0
27/05:30pm ENE 10 12 - - - - - - - 17.4 1026.0 0.0
27/05:00pm ENE 11 13 - - - - - - - 17.4 1026.0 0.0
27/04:30pm E 12 14 - - - - - - - 17.6 1026.2 0.0
27/04:00pm ENE 11 13 - - - - - - - 17.9 1026.3 0.0
27/03:30pm E 11 13 - - - - - - - 17.8 1026.5 0.0
27/03:00pm E 11 13 - - - - - - - 17.6 1026.7 0.0

Other formats

Comma delimited format used in spreadsheet applications
http://www.bom.gov.au/fwo/IDT60701/IDT60701.94988.axf

JavaScript Object Notation format (JSON) in row-major order
http://www.bom.gov.au/fwo/IDT60701/IDT60701.94988.json

Data quality

Most of these data are generated automatically and are frequently updated. Quality checks on data are not normally performed. It is possible for incorrect values to appear. Refer to information at About Latest Weather Observations and please check the disclaimer before using these data.